createdAt,value
2018-06-10T00:00:00.802Z,21.00
2018-06-10T00:02:29.171Z,21.00
2018-06-10T00:04:57.669Z,21.00
2018-06-10T00:07:26.614Z,21.00
2018-06-10T00:09:55.376Z,21.00
2018-06-10T00:12:24.615Z,21.00
2018-06-10T00:14:53.605Z,20.90
2018-06-10T00:17:22.803Z,20.80
2018-06-10T00:19:51.110Z,20.80
2018-06-10T00:22:19.384Z,20.70
2018-06-10T00:24:47.628Z,20.70
2018-06-10T00:29:43.755Z,20.70
2018-06-10T00:32:12.033Z,20.70
2018-06-10T00:34:40.275Z,20.70
2018-06-10T00:37:08.617Z,20.70
2018-06-10T00:39:36.881Z,20.70
2018-06-10T00:42:05.221Z,20.70
2018-06-10T00:44:33.556Z,20.70
2018-06-10T00:47:01.846Z,20.70
2018-06-10T00:51:58.003Z,20.70
2018-06-10T00:54:26.251Z,20.70
2018-06-10T00:56:54.530Z,20.80
2018-06-10T00:59:22.772Z,20.80
2018-06-10T01:01:51.059Z,20.80
2018-06-10T01:04:19.391Z,20.80
2018-06-10T01:06:47.653Z,20.80
2018-06-10T01:09:15.929Z,20.80
2018-06-10T01:11:44.316Z,20.80
2018-06-10T01:14:12.576Z,20.80
2018-06-10T01:16:40.853Z,20.80
2018-06-10T01:19:09.092Z,20.70
2018-06-10T01:21:37.359Z,20.80
2018-06-10T01:24:05.603Z,20.80
2018-06-10T01:26:39.375Z,20.80
2018-06-10T01:29:07.624Z,20.80
2018-06-10T01:31:35.880Z,20.80
2018-06-10T01:34:04.596Z,20.80
2018-06-10T01:36:32.857Z,20.80
2018-06-10T01:39:01.120Z,20.80
2018-06-10T01:41:29.369Z,20.80
2018-06-10T01:43:57.626Z,20.70
2018-06-10T01:46:25.884Z,20.70
2018-06-10T01:48:54.342Z,20.70
2018-06-10T01:51:22.606Z,20.70
2018-06-10T01:53:50.861Z,20.60
2018-06-10T01:56:19.166Z,20.60
2018-06-10T01:58:47.420Z,20.50
2018-06-10T02:01:15.692Z,20.50
2018-06-10T02:06:11.846Z,20.60
2018-06-10T02:08:40.091Z,20.50
2018-06-10T02:11:08.383Z,20.50
2018-06-10T02:13:36.671Z,20.50
2018-06-10T02:16:04.946Z,20.50
2018-06-10T02:18:33.208Z,20.50
2018-06-10T02:21:01.466Z,20.50
2018-06-10T02:23:29.731Z,20.50
2018-06-10T02:25:57.994Z,20.50
2018-06-10T02:28:26.288Z,20.40
2018-06-10T02:30:54.560Z,20.40
2018-06-10T02:33:22.825Z,20.40
2018-06-10T02:35:51.100Z,20.40
2018-06-10T02:38:19.365Z,20.40
2018-06-10T02:40:47.608Z,20.50
2018-06-10T02:43:15.865Z,20.50
2018-06-10T02:45:44.145Z,20.50
2018-06-10T02:48:12.425Z,20.50
2018-06-10T02:50:40.670Z,20.50
2018-06-10T02:53:08.930Z,20.50
2018-06-10T02:55:37.251Z,20.50
2018-06-10T02:58:05.517Z,20.50
2018-06-10T03:00:33.801Z,20.50
2018-06-10T03:03:02.066Z,20.50
2018-06-10T03:05:30.523Z,20.50
2018-06-10T03:07:58.811Z,20.40
2018-06-10T03:10:27.029Z,20.30
2018-06-10T03:12:55.295Z,20.30
2018-06-10T03:15:23.518Z,20.30
2018-06-10T03:17:51.786Z,20.30
2018-06-10T03:20:20.045Z,20.30
2018-06-10T03:22:48.319Z,20.20
2018-06-10T03:25:16.565Z,20.20
2018-06-10T03:27:44.863Z,20.20
2018-06-10T03:30:13.232Z,20.10
2018-06-10T03:32:42.333Z,20.10
2018-06-10T03:35:10.580Z,20.10
2018-06-10T03:37:38.835Z,20.00
2018-06-10T03:40:07.177Z,20.00
2018-06-10T03:42:35.424Z,20.00
2018-06-10T03:45:03.696Z,20.00
2018-06-10T03:47:32.023Z,20.00
2018-06-10T03:50:00.256Z,20.00
2018-06-10T03:52:28.517Z,20.00
2018-06-10T03:54:56.790Z,20.10
2018-06-10T03:57:25.077Z,20.10
2018-06-10T03:59:53.419Z,20.20
2018-06-10T04:02:21.671Z,20.20
2018-06-10T04:04:49.927Z,20.20
2018-06-10T04:07:18.179Z,20.30
2018-06-10T04:09:46.413Z,20.30
2018-06-10T04:12:14.670Z,20.30
2018-06-10T04:14:42.923Z,20.40
2018-06-10T04:17:11.200Z,20.40
2018-06-10T04:19:39.451Z,20.40
2018-06-10T04:22:07.791Z,20.40
2018-06-10T04:24:36.101Z,20.40
2018-06-10T04:27:04.443Z,20.40
2018-06-10T04:29:32.671Z,20.40
2018-06-10T04:32:00.943Z,20.50
2018-06-10T04:34:29.170Z,20.50
2018-06-10T04:36:57.426Z,20.60
2018-06-10T04:39:25.668Z,20.60
2018-06-10T04:41:53.923Z,20.60
2018-06-10T04:44:22.182Z,20.60
2018-06-10T04:46:50.435Z,20.60
2018-06-10T04:49:18.735Z,20.60
2018-06-10T04:51:46.966Z,20.60
2018-06-10T04:54:15.210Z,20.60
2018-06-10T04:56:43.443Z,20.60
2018-06-10T04:59:11.709Z,20.60
2018-06-10T05:04:07.816Z,20.60
2018-06-10T05:06:36.041Z,20.70
2018-06-10T05:09:05.794Z,20.70
2018-06-10T05:11:34.036Z,20.70
2018-06-10T05:14:02.355Z,20.90
2018-06-10T05:16:30.634Z,21.00
2018-06-10T05:18:58.917Z,21.00
2018-06-10T05:21:27.205Z,21.00
2018-06-10T05:23:55.495Z,21.10
2018-06-10T05:26:23.762Z,21.00
2018-06-10T05:28:52.019Z,21.10
2018-06-10T05:31:20.325Z,21.10
2018-06-10T05:33:48.605Z,21.10
2018-06-10T05:36:16.897Z,21.20
2018-06-10T05:38:45.595Z,21.20
2018-06-10T05:41:13.839Z,21.20
2018-06-10T05:43:42.163Z,21.20
2018-06-10T05:46:10.407Z,21.30
2018-06-10T05:48:39.086Z,21.30
2018-06-10T05:51:07.400Z,21.30
2018-06-10T05:53:35.745Z,21.30
2018-06-10T05:56:04.080Z,21.30
2018-06-10T05:58:32.374Z,21.30
2018-06-10T06:01:00.777Z,21.40
2018-06-10T06:03:29.077Z,21.30
2018-06-10T06:05:57.379Z,21.40
2018-06-10T06:08:25.675Z,21.40
2018-06-10T06:10:53.979Z,21.40
2018-06-10T06:13:22.280Z,21.50
2018-06-10T06:15:50.487Z,21.50
2018-06-10T06:18:19.477Z,21.50
2018-06-10T06:20:47.733Z,21.50
2018-06-10T06:23:15.980Z,21.50
2018-06-10T06:25:44.211Z,21.50
2018-06-10T06:28:12.485Z,21.50
2018-06-10T06:30:40.719Z,21.50
2018-06-10T06:33:08.973Z,21.50
2018-06-10T06:35:37.246Z,21.50
2018-06-10T06:38:05.493Z,21.50
2018-06-10T06:40:33.753Z,21.40
2018-06-10T06:43:02.336Z,21.40
2018-06-10T06:45:30.666Z,21.30
2018-06-10T06:47:58.975Z,21.40
2018-06-10T06:50:27.215Z,21.40
2018-06-10T06:52:55.627Z,21.40
2018-06-10T06:55:23.994Z,21.40
2018-06-10T06:57:52.386Z,21.40
2018-06-10T07:00:20.727Z,21.60
2018-06-10T07:02:49.089Z,21.70
2018-06-10T07:05:17.412Z,21.80
2018-06-10T07:10:14.925Z,21.90
2018-06-10T07:12:43.228Z,22.00
2018-06-10T07:15:11.481Z,22.00
2018-06-10T07:17:39.727Z,22.00
2018-06-10T07:22:35.896Z,22.00
2018-06-10T07:25:04.174Z,22.00
2018-06-10T07:30:00.386Z,22.00
2018-06-10T07:32:28.679Z,22.10
2018-06-10T07:34:56.951Z,22.20
2018-06-10T07:37:25.515Z,22.30
2018-06-10T07:39:53.830Z,22.40
2018-06-10T07:42:22.187Z,22.50
2018-06-10T07:44:50.451Z,22.80
2018-06-10T07:47:18.707Z,23.20
2018-06-10T07:49:46.970Z,23.60
2018-06-10T07:52:15.231Z,24.20
2018-06-10T07:54:43.565Z,24.70
2018-06-10T07:57:11.819Z,25.30
2018-06-10T07:59:40.068Z,25.80
2018-06-10T08:02:08.424Z,26.20
2018-06-10T08:04:36.692Z,26.70
2018-06-10T08:07:06.648Z,27.10
2018-06-10T08:09:35.223Z,27.50
2018-06-10T08:12:04.208Z,27.90
2018-06-10T08:14:33.256Z,28.30
2018-06-10T08:17:02.728Z,28.70
2018-06-10T08:19:31.932Z,28.90
2018-06-10T08:22:01.018Z,29.00
2018-06-10T08:24:30.172Z,29.20
2018-06-10T08:26:58.429Z,29.20
2018-06-10T08:29:26.700Z,29.30
2018-06-10T08:31:54.982Z,29.50
2018-06-10T08:34:23.439Z,29.50
2018-06-10T08:36:51.734Z,29.10
2018-06-10T08:39:20.017Z,29.00
2018-06-10T08:41:48.263Z,29.20
2018-06-10T08:44:16.509Z,29.20
2018-06-10T08:46:44.743Z,29.50
2018-06-10T08:49:13.012Z,29.60
2018-06-10T08:51:41.248Z,29.60
2018-06-10T08:54:09.490Z,29.60
2018-06-10T08:56:37.789Z,29.50
2018-06-10T08:59:06.064Z,29.40
2018-06-10T09:01:34.298Z,29.70
2018-06-10T09:04:02.546Z,29.70
2018-06-10T09:06:30.859Z,29.80
2018-06-10T09:08:59.183Z,29.90
2018-06-10T09:11:27.383Z,29.80
2018-06-10T09:13:55.728Z,29.70
2018-06-10T09:16:24.088Z,29.50
2018-06-10T09:18:52.330Z,29.40
2018-06-10T09:21:20.593Z,29.30
2018-06-10T09:23:49.152Z,29.10
2018-06-10T09:26:17.399Z,28.90
2018-06-10T09:28:45.712Z,28.90
2018-06-10T09:31:13.945Z,28.80
2018-06-10T09:33:42.511Z,28.80
2018-06-10T09:36:10.754Z,28.80
2018-06-10T09:38:39.862Z,28.80
2018-06-10T09:41:08.076Z,28.80
2018-06-10T09:43:36.307Z,28.90
2018-06-10T09:46:04.793Z,28.90
2018-06-10T09:48:33.088Z,28.90
2018-06-10T09:51:01.357Z,29.00
2018-06-10T09:53:29.603Z,29.00
2018-06-10T09:55:58.235Z,29.10
2018-06-10T09:58:26.472Z,29.20
2018-06-10T10:03:22.688Z,29.60
2018-06-10T10:05:51.792Z,29.70
2018-06-10T10:08:20.809Z,29.90
2018-06-10T10:10:49.736Z,30.20
2018-06-10T10:13:18.772Z,30.40
2018-06-10T10:15:47.351Z,30.80
2018-06-10T10:18:15.599Z,31.00
2018-06-10T10:20:43.851Z,31.20
2018-06-10T10:23:12.093Z,31.40
2018-06-10T10:25:40.354Z,31.70
2018-06-10T10:28:08.854Z,32.00
2018-06-10T10:30:37.267Z,32.40
2018-06-10T10:33:05.548Z,32.50
2018-06-10T10:35:33.812Z,32.70
2018-06-10T10:38:02.088Z,32.80
2018-06-10T10:40:30.349Z,33.00
2018-06-10T10:42:58.692Z,33.40
2018-06-10T10:45:27.157Z,33.70
2018-06-10T10:47:55.467Z,33.90
2018-06-10T10:50:23.845Z,34.40
2018-06-10T10:52:52.104Z,35.00
2018-06-10T10:55:20.393Z,35.40
2018-06-10T10:57:48.640Z,35.80
2018-06-10T11:00:16.902Z,36.10
2018-06-10T11:02:45.154Z,36.30
2018-06-10T11:05:13.471Z,36.70
2018-06-10T11:07:42.380Z,36.80
2018-06-10T11:10:11.394Z,37.20
2018-06-10T11:12:40.555Z,37.40
2018-06-10T11:15:09.694Z,37.30
2018-06-10T11:17:38.640Z,37.10
2018-06-10T11:20:07.441Z,36.90
2018-06-10T11:22:36.323Z,36.90
2018-06-10T11:25:05.184Z,36.90
2018-06-10T11:27:34.222Z,36.70
2018-06-10T11:30:03.065Z,36.30
2018-06-10T11:32:31.965Z,35.80
2018-06-10T11:35:00.764Z,35.50
2018-06-10T11:37:29.811Z,35.10
2018-06-10T11:39:59.362Z,34.50
2018-06-10T11:42:28.589Z,33.90
2018-06-10T11:44:57.665Z,33.00
2018-06-10T11:47:26.010Z,32.40
2018-06-10T11:49:54.396Z,31.80
2018-06-10T11:52:22.708Z,31.00
2018-06-10T11:54:50.936Z,30.50
2018-06-10T11:57:19.199Z,30.10
2018-06-10T11:59:47.451Z,29.70
2018-06-10T12:02:16.024Z,29.40
2018-06-10T12:04:44.331Z,29.10
2018-06-10T12:07:12.624Z,29.00
2018-06-10T12:09:40.929Z,28.90
2018-06-10T12:12:09.229Z,28.90
2018-06-10T12:14:37.525Z,29.00
2018-06-10T12:17:05.867Z,29.10
2018-06-10T12:19:34.096Z,29.20
2018-06-10T12:22:02.366Z,29.30
2018-06-10T12:24:30.611Z,29.30
2018-06-10T12:26:59.746Z,29.40
2018-06-10T12:29:27.988Z,29.40
2018-06-10T12:31:56.270Z,29.50
2018-06-10T12:34:24.515Z,29.60
2018-06-10T12:36:52.787Z,29.60
2018-06-10T12:39:21.265Z,29.50
2018-06-10T12:41:49.537Z,29.60
2018-06-10T12:44:17.792Z,29.50
2018-06-10T12:46:46.087Z,29.40
2018-06-10T12:49:14.403Z,29.30
2018-06-10T12:51:42.624Z,29.20
2018-06-10T12:54:10.868Z,29.00
2018-06-10T12:56:39.133Z,28.80
2018-06-10T12:59:07.383Z,28.40
2018-06-10T13:01:35.632Z,28.30
2018-06-10T13:04:03.867Z,28.20
2018-06-10T13:06:32.116Z,28.20
2018-06-10T13:09:00.340Z,28.10
2018-06-10T13:11:28.595Z,28.20
2018-06-10T13:13:56.872Z,28.20
2018-06-10T13:16:25.164Z,28.30
2018-06-10T13:18:53.373Z,28.30
2018-06-10T13:21:21.649Z,28.40
2018-06-10T13:23:49.890Z,28.30
2018-06-10T13:26:18.146Z,28.40
2018-06-10T13:28:46.609Z,28.50
2018-06-10T13:31:14.868Z,28.60
2018-06-10T13:33:43.116Z,28.60
2018-06-10T13:36:11.385Z,28.50
2018-06-10T13:38:39.606Z,28.40
2018-06-10T13:41:07.872Z,28.40
2018-06-10T13:43:36.103Z,28.50
2018-06-10T13:46:04.368Z,28.50
2018-06-10T13:48:32.616Z,28.40
2018-06-10T13:51:00.858Z,28.50
2018-06-10T13:53:29.111Z,28.50
2018-06-10T13:55:57.387Z,28.40
2018-06-10T13:58:25.609Z,28.40
2018-06-10T14:00:53.856Z,28.30
2018-06-10T14:03:22.112Z,28.40
2018-06-10T14:05:50.348Z,28.30
2018-06-10T14:08:18.619Z,28.30
2018-06-10T14:10:46.927Z,28.40
2018-06-10T14:13:15.189Z,28.40
2018-06-10T14:15:43.448Z,28.40
2018-06-10T14:18:11.707Z,28.40
2018-06-10T14:20:39.952Z,28.30
2018-06-10T14:23:08.207Z,28.40
2018-06-10T14:25:36.436Z,28.40
2018-06-10T14:28:04.694Z,28.40
2018-06-10T14:30:32.922Z,28.40
2018-06-10T14:33:01.204Z,28.40
2018-06-10T14:35:29.440Z,28.40
2018-06-10T14:37:57.756Z,28.50
2018-06-10T14:40:25.946Z,28.50
2018-06-10T14:45:22.054Z,28.50
2018-06-10T14:47:50.333Z,28.50
2018-06-10T14:50:18.729Z,28.50
2018-06-10T14:52:47.699Z,28.50
2018-06-10T14:55:15.956Z,28.50
2018-06-10T14:57:44.411Z,28.60
2018-06-10T15:02:41.010Z,28.60
2018-06-10T15:05:09.266Z,28.60
2018-06-10T15:07:38.730Z,28.60
2018-06-10T15:10:07.575Z,28.60
2018-06-10T15:12:36.929Z,28.60
2018-06-10T15:15:05.251Z,28.60
2018-06-10T15:17:33.494Z,28.60
2018-06-10T15:20:01.748Z,28.60
2018-06-10T15:22:30.040Z,28.60
2018-06-10T15:24:58.350Z,28.60
2018-06-10T15:27:26.614Z,28.60
2018-06-10T15:29:54.872Z,28.60
2018-06-10T15:32:23.176Z,28.60
2018-06-10T15:34:51.516Z,28.60
2018-06-10T15:37:54.870Z,28.50
2018-06-10T15:40:23.122Z,28.40
2018-06-10T15:42:51.641Z,28.40
2018-06-10T15:45:20.036Z,28.30
2018-06-10T15:47:48.320Z,28.20
2018-06-10T15:50:16.587Z,28.20
2018-06-10T15:52:44.833Z,28.10
2018-06-10T15:55:13.079Z,28.00
2018-06-10T15:57:41.699Z,28.00
2018-06-10T16:00:09.935Z,28.00
2018-06-10T16:02:38.191Z,28.00
2018-06-10T16:05:06.479Z,28.00
2018-06-10T16:07:34.775Z,28.00
2018-06-10T16:10:03.074Z,28.00
2018-06-10T16:12:31.316Z,28.00
2018-06-10T16:14:59.580Z,28.00
2018-06-10T16:17:27.838Z,28.00
2018-06-10T16:19:56.099Z,27.90
2018-06-10T16:22:24.376Z,28.00
2018-06-10T16:24:52.739Z,28.00
2018-06-10T16:29:50.946Z,28.00
2018-06-10T16:32:19.938Z,28.00
2018-06-10T16:34:48.468Z,27.90
2018-06-10T16:37:17.658Z,28.00
2018-06-10T16:39:46.807Z,28.00
2018-06-10T16:42:15.106Z,27.90
2018-06-10T16:44:43.414Z,27.90
2018-06-10T16:47:11.711Z,27.90
2018-06-10T16:49:40.109Z,27.90
2018-06-10T16:52:08.377Z,27.90
2018-06-10T16:54:37.849Z,27.90
2018-06-10T16:57:06.273Z,28.00
2018-06-10T16:59:34.644Z,27.90
2018-06-10T17:02:03.067Z,27.90
2018-06-10T17:04:31.646Z,27.90
2018-06-10T17:06:59.992Z,27.90
2018-06-10T17:09:28.619Z,27.90
2018-06-10T17:11:57.644Z,27.90
2018-06-10T17:14:26.552Z,27.90
2018-06-10T17:16:55.382Z,27.90
2018-06-10T17:19:24.192Z,27.90
2018-06-10T17:21:53.257Z,28.00
2018-06-10T17:24:22.334Z,27.90
2018-06-10T17:26:50.795Z,27.90
2018-06-10T17:29:19.626Z,27.90
2018-06-10T17:31:48.774Z,27.90
2018-06-10T17:34:18.416Z,27.90
2018-06-10T17:36:46.898Z,27.90
2018-06-10T17:39:15.186Z,27.90
2018-06-10T17:41:43.428Z,27.90
2018-06-10T17:44:11.697Z,27.90
2018-06-10T17:46:39.974Z,27.80
2018-06-10T17:49:08.249Z,27.80
2018-06-10T17:51:36.501Z,27.70
2018-06-10T17:54:04.777Z,27.70
2018-06-10T17:56:33.028Z,27.70
2018-06-10T17:59:01.276Z,27.60
2018-06-10T18:01:29.532Z,27.70
2018-06-10T18:03:57.797Z,27.60
2018-06-10T18:06:26.103Z,27.60
2018-06-10T18:11:22.266Z,27.50
2018-06-10T18:13:50.826Z,27.40
2018-06-10T18:16:19.148Z,27.40
2018-06-10T18:18:47.396Z,27.30
2018-06-10T18:21:15.709Z,27.30
2018-06-10T18:23:43.943Z,27.20
2018-06-10T18:28:40.525Z,27.20
2018-06-10T18:31:08.787Z,27.20
2018-06-10T18:38:32.778Z,27.10
2018-06-10T18:41:01.068Z,27.20
2018-06-10T18:43:29.285Z,27.20
2018-06-10T18:45:57.549Z,27.10
2018-06-10T18:48:25.806Z,27.00
2018-06-10T18:50:54.139Z,27.00
2018-06-10T18:53:22.586Z,26.90
2018-06-10T18:55:50.873Z,26.80
2018-06-10T18:58:19.161Z,26.70
2018-06-10T19:00:47.428Z,26.60
2018-06-10T19:05:43.616Z,26.50
2018-06-10T19:08:11.895Z,26.50
2018-06-10T19:10:40.945Z,26.40
2018-06-10T19:13:09.579Z,26.40
2018-06-10T19:15:37.851Z,26.20
2018-06-10T19:18:06.206Z,26.00
2018-06-10T19:20:34.560Z,25.90
2018-06-10T19:23:02.829Z,25.80
2018-06-10T19:25:31.109Z,25.70
2018-06-10T19:27:59.331Z,25.70
2018-06-10T19:30:27.586Z,25.70
2018-06-10T19:32:55.935Z,25.60
2018-06-10T19:35:24.266Z,25.60
2018-06-10T19:37:52.646Z,25.50
2018-06-10T19:40:20.903Z,25.50
2018-06-10T19:42:49.668Z,25.50
2018-06-10T19:45:17.917Z,25.40
2018-06-10T19:47:46.253Z,25.40
2018-06-10T19:50:14.492Z,25.30
2018-06-10T19:55:10.662Z,25.20
2018-06-10T19:57:38.966Z,25.20
2018-06-10T20:00:07.329Z,25.10
2018-06-10T20:02:35.648Z,25.10
2018-06-10T20:05:04.135Z,25.00
2018-06-10T20:07:32.379Z,24.90
2018-06-10T20:10:00.788Z,24.90
2018-06-10T20:12:29.137Z,24.90
2018-06-10T20:14:57.449Z,24.80
2018-06-10T20:17:25.736Z,24.80
2018-06-10T20:19:53.987Z,24.80
2018-06-10T20:22:22.249Z,24.70
2018-06-10T20:24:50.895Z,24.60
2018-06-10T20:27:19.585Z,24.60
2018-06-10T20:29:48.498Z,24.50
2018-06-10T20:32:17.682Z,24.50
2018-06-10T20:34:46.785Z,24.40
2018-06-10T20:37:15.578Z,24.50
2018-06-10T20:39:44.617Z,24.50
2018-06-10T20:42:13.062Z,24.50
2018-06-10T20:44:41.392Z,24.60
2018-06-10T20:47:09.752Z,24.50
2018-06-10T20:49:38.004Z,24.50
2018-06-10T20:52:06.251Z,24.50
2018-06-10T20:54:34.659Z,24.40
2018-06-10T20:57:02.887Z,24.40
2018-06-10T20:59:31.178Z,24.50
2018-06-10T21:01:59.479Z,24.50
2018-06-10T21:04:27.708Z,24.50
2018-06-10T21:06:55.991Z,24.40
2018-06-10T21:09:24.256Z,24.40
2018-06-10T21:11:52.503Z,24.40
2018-06-10T21:14:20.767Z,24.40
2018-06-10T21:16:49.011Z,24.40
2018-06-10T21:19:17.222Z,24.40
2018-06-10T21:21:45.468Z,24.30
2018-06-10T21:24:13.689Z,24.30
2018-06-10T21:26:41.939Z,24.30
2018-06-10T21:29:10.167Z,24.40
2018-06-10T21:31:38.428Z,24.30
2018-06-10T21:34:06.693Z,24.30
2018-06-10T21:36:34.942Z,24.40
2018-06-10T21:39:03.533Z,24.40
2018-06-10T21:41:32.503Z,24.40
2018-06-10T21:44:00.688Z,24.20
2018-06-10T21:46:29.620Z,24.30
2018-06-10T21:48:58.810Z,24.20
2018-06-10T21:51:27.101Z,24.20
2018-06-10T21:53:55.367Z,24.20
2018-06-10T21:56:23.677Z,24.20
2018-06-10T21:58:51.955Z,24.20
2018-06-10T22:03:48.829Z,24.20
2018-06-10T22:06:17.108Z,24.20
2018-06-10T22:08:45.398Z,24.20
2018-06-10T22:11:13.655Z,24.10
2018-06-10T22:13:41.904Z,24.10
2018-06-10T22:16:10.150Z,24.10
2018-06-10T22:18:38.556Z,24.10
2018-06-10T22:21:06.832Z,24.10
2018-06-10T22:23:35.069Z,24.10
2018-06-10T22:26:03.296Z,24.10
2018-06-10T22:28:31.595Z,24.10
2018-06-10T22:30:59.835Z,24.00
2018-06-10T22:33:28.098Z,24.00
2018-06-10T22:35:56.349Z,24.00
2018-06-10T22:38:24.603Z,24.00
2018-06-10T22:40:52.866Z,24.00
2018-06-10T22:43:21.107Z,24.00
2018-06-10T22:48:17.199Z,24.00
2018-06-10T22:50:45.427Z,24.00
2018-06-10T22:54:23.214Z,24.00
2018-06-10T22:56:51.457Z,23.90
2018-06-10T22:59:20.276Z,23.90
2018-06-10T23:01:48.590Z,23.90
2018-06-10T23:04:16.850Z,23.90
2018-06-10T23:06:45.115Z,23.80
2018-06-10T23:09:13.376Z,23.90
2018-06-10T23:11:41.626Z,23.90
2018-06-10T23:14:09.936Z,23.90
2018-06-10T23:16:38.199Z,23.80
2018-06-10T23:19:06.531Z,23.80
2018-06-10T23:21:34.772Z,23.80
2018-06-10T23:24:03.065Z,23.80
2018-06-10T23:26:31.353Z,23.80
2018-06-10T23:28:59.663Z,23.80
2018-06-10T23:31:27.911Z,23.70
2018-06-10T23:33:56.205Z,23.70
2018-06-10T23:36:24.707Z,23.70
2018-06-10T23:38:52.947Z,23.70
2018-06-10T23:41:21.204Z,23.60
2018-06-10T23:43:49.470Z,23.60
2018-06-10T23:46:17.694Z,23.60
2018-06-10T23:48:45.971Z,23.60
2018-06-10T23:51:14.236Z,23.60
2018-06-10T23:53:42.492Z,23.60
2018-06-10T23:56:10.876Z,23.50
2018-06-10T23:58:39.152Z,23.50
